sensor_id;sensor_type;location;lat;lon;timestamp;P1;durP1;ratioP1;P2;durP2;ratioP2
61085;SDS011;46967;48.876;2.136;2023-05-27T00:01:30;10.52;;;3.15;;
61085;SDS011;46967;48.876;2.136;2023-05-27T00:03:55;12.10;;;3.35;;
61085;SDS011;46967;48.876;2.136;2023-05-27T00:06:21;12.93;;;3.42;;
61085;SDS011;46967;48.876;2.136;2023-05-27T00:08:46;17.80;;;3.80;;
61085;SDS011;46967;48.876;2.136;2023-05-27T00:11:11;17.10;;;3.08;;
61085;SDS011;46967;48.876;2.136;2023-05-27T00:13:37;10.05;;;3.22;;
61085;SDS011;46967;48.876;2.136;2023-05-27T00:16:02;18.13;;;3.55;;
61085;SDS011;46967;48.876;2.136;2023-05-27T00:18:28;13.00;;;3.55;;
61085;SDS011;46967;48.876;2.136;2023-05-27T00:20:53;13.88;;;3.33;;
61085;SDS011;46967;48.876;2.136;2023-05-27T00:23:19;8.73;;;2.92;;
61085;SDS011;46967;48.876;2.136;2023-05-27T00:25:44;10.38;;;2.95;;
61085;SDS011;46967;48.876;2.136;2023-05-27T00:28:12;11.98;;;3.00;;
61085;SDS011;46967;48.876;2.136;2023-05-27T00:30:37;11.52;;;3.40;;
61085;SDS011;46967;48.876;2.136;2023-05-27T00:33:02;12.48;;;3.28;;
61085;SDS011;46967;48.876;2.136;2023-05-27T00:35:28;14.45;;;3.35;;
61085;SDS011;46967;48.876;2.136;2023-05-27T00:37:54;15.00;;;4.20;;
61085;SDS011;46967;48.876;2.136;2023-05-27T00:40:20;15.00;;;4.00;;
61085;SDS011;46967;48.876;2.136;2023-05-27T00:42:47;14.82;;;3.30;;
61085;SDS011;46967;48.876;2.136;2023-05-27T00:45:13;12.23;;;3.15;;
61085;SDS011;46967;48.876;2.136;2023-05-27T00:47:38;13.18;;;2.80;;
61085;SDS011;46967;48.876;2.136;2023-05-27T00:50:04;14.65;;;3.50;;
61085;SDS011;46967;48.876;2.136;2023-05-27T00:52:32;17.63;;;3.42;;
61085;SDS011;46967;48.876;2.136;2023-05-27T00:54:58;12.27;;;3.30;;
61085;SDS011;46967;48.876;2.136;2023-05-27T00:57:24;11.55;;;3.17;;
61085;SDS011;46967;48.876;2.136;2023-05-27T00:59:50;15.23;;;3.40;;
61085;SDS011;46967;48.876;2.136;2023-05-27T01:02:16;12.20;;;3.05;;
61085;SDS011;46967;48.876;2.136;2023-05-27T01:04:42;11.68;;;3.03;;
61085;SDS011;46967;48.876;2.136;2023-05-27T01:12:51;11.80;;;3.50;;
61085;SDS011;46967;48.876;2.136;2023-05-27T01:15:17;13.32;;;2.92;;
61085;SDS011;46967;48.876;2.136;2023-05-27T01:17:44;13.30;;;3.60;;
61085;SDS011;46967;48.876;2.136;2023-05-27T01:20:12;14.35;;;3.58;;
61085;SDS011;46967;48.876;2.136;2023-05-27T01:22:39;10.40;;;3.63;;
61085;SDS011;46967;48.876;2.136;2023-05-27T01:25:07;11.43;;;2.90;;
61085;SDS011;46967;48.876;2.136;2023-05-27T01:27:33;10.10;;;3.00;;
61085;SDS011;46967;48.876;2.136;2023-05-27T01:29:58;10.07;;;3.05;;
61085;SDS011;46967;48.876;2.136;2023-05-27T01:32:34;11.00;;;3.13;;
61085;SDS011;46967;48.876;2.136;2023-05-27T01:37:40;11.50;;;3.13;;
61085;SDS011;46967;48.876;2.136;2023-05-27T01:40:08;14.35;;;3.83;;
61085;SDS011;46967;48.876;2.136;2023-05-27T01:42:34;12.77;;;3.53;;
61085;SDS011;46967;48.876;2.136;2023-05-27T01:45:01;11.07;;;2.90;;
61085;SDS011;46967;48.876;2.136;2023-05-27T01:47:29;10.35;;;3.08;;
61085;SDS011;46967;48.876;2.136;2023-05-27T01:49:55;15.40;;;3.90;;
61085;SDS011;46967;48.876;2.136;2023-05-27T01:52:20;13.77;;;3.55;;
61085;SDS011;46967;48.876;2.136;2023-05-27T01:54:45;14.48;;;3.40;;
61085;SDS011;46967;48.876;2.136;2023-05-27T01:57:11;11.13;;;3.40;;
61085;SDS011;46967;48.876;2.136;2023-05-27T01:59:36;18.33;;;3.30;;
61085;SDS011;46967;48.876;2.136;2023-05-27T02:02:02;10.27;;;2.75;;
61085;SDS011;46967;48.876;2.136;2023-05-27T02:04:27;11.82;;;2.92;;
61085;SDS011;46967;48.876;2.136;2023-05-27T02:06:52;12.80;;;2.90;;
61085;SDS011;46967;48.876;2.136;2023-05-27T02:09:18;12.90;;;3.92;;
61085;SDS011;46967;48.876;2.136;2023-05-27T02:11:43;12.48;;;3.38;;
61085;SDS011;46967;48.876;2.136;2023-05-27T02:14:09;11.75;;;3.33;;
61085;SDS011;46967;48.876;2.136;2023-05-27T02:16:34;12.60;;;3.00;;
61085;SDS011;46967;48.876;2.136;2023-05-27T02:19:03;13.63;;;3.00;;
61085;SDS011;46967;48.876;2.136;2023-05-27T02:21:29;12.40;;;3.42;;
61085;SDS011;46967;48.876;2.136;2023-05-27T02:23:55;11.95;;;4.07;;
61085;SDS011;46967;48.876;2.136;2023-05-27T02:26:20;10.05;;;3.15;;
61085;SDS011;46967;48.876;2.136;2023-05-27T02:28:47;11.73;;;2.80;;
61085;SDS011;46967;48.876;2.136;2023-05-27T02:31:12;10.52;;;3.03;;
61085;SDS011;46967;48.876;2.136;2023-05-27T02:33:38;8.23;;;3.20;;
61085;SDS011;46967;48.876;2.136;2023-05-27T02:36:03;12.38;;;2.78;;
61085;SDS011;46967;48.876;2.136;2023-05-27T02:38:29;10.10;;;2.90;;
61085;SDS011;46967;48.876;2.136;2023-05-27T02:40:54;10.15;;;2.83;;
61085;SDS011;46967;48.876;2.136;2023-05-27T02:43:20;13.20;;;3.10;;
61085;SDS011;46967;48.876;2.136;2023-05-27T02:45:45;9.75;;;2.95;;
61085;SDS011;46967;48.876;2.136;2023-05-27T02:48:10;10.82;;;3.35;;
61085;SDS011;46967;48.876;2.136;2023-05-27T02:50:36;9.30;;;3.33;;
61085;SDS011;46967;48.876;2.136;2023-05-27T02:53:01;14.10;;;3.28;;
61085;SDS011;46967;48.876;2.136;2023-05-27T02:55:26;9.70;;;2.90;;
61085;SDS011;46967;48.876;2.136;2023-05-27T02:57:52;9.45;;;2.95;;
61085;SDS011;46967;48.876;2.136;2023-05-27T03:00:17;7.90;;;2.60;;
61085;SDS011;46967;48.876;2.136;2023-05-27T03:02:43;9.48;;;3.03;;
61085;SDS011;46967;48.876;2.136;2023-05-27T03:05:08;8.40;;;2.97;;
61085;SDS011;46967;48.876;2.136;2023-05-27T03:07:34;12.90;;;3.78;;
61085;SDS011;46967;48.876;2.136;2023-05-27T03:09:59;10.20;;;3.17;;
61085;SDS011;46967;48.876;2.136;2023-05-27T03:12:24;11.35;;;2.92;;
61085;SDS011;46967;48.876;2.136;2023-05-27T03:14:50;9.63;;;2.60;;
61085;SDS011;46967;48.876;2.136;2023-05-27T03:17:16;10.50;;;2.97;;
61085;SDS011;46967;48.876;2.136;2023-05-27T03:19:43;6.82;;;2.47;;
61085;SDS011;46967;48.876;2.136;2023-05-27T03:22:09;11.05;;;3.20;;
61085;SDS011;46967;48.876;2.136;2023-05-27T03:24:34;8.23;;;2.67;;
61085;SDS011;46967;48.876;2.136;2023-05-27T03:27:00;9.63;;;2.80;;
61085;SDS011;46967;48.876;2.136;2023-05-27T03:29:26;8.65;;;2.95;;
61085;SDS011;46967;48.876;2.136;2023-05-27T03:31:52;9.98;;;3.05;;
61085;SDS011;46967;48.876;2.136;2023-05-27T03:34:17;11.48;;;3.30;;
61085;SDS011;46967;48.876;2.136;2023-05-27T03:36:43;8.88;;;2.88;;
61085;SDS011;46967;48.876;2.136;2023-05-27T03:39:13;11.57;;;2.92;;
61085;SDS011;46967;48.876;2.136;2023-05-27T03:41:38;9.23;;;3.17;;
61085;SDS011;46967;48.876;2.136;2023-05-27T03:44:04;10.43;;;2.95;;
61085;SDS011;46967;48.876;2.136;2023-05-27T03:46:29;10.07;;;2.70;;
61085;SDS011;46967;48.876;2.136;2023-05-27T03:48:54;5.60;;;2.55;;
61085;SDS011;46967;48.876;2.136;2023-05-27T03:51:20;15.52;;;2.85;;
61085;SDS011;46967;48.876;2.136;2023-05-27T03:53:46;10.20;;;2.72;;
61085;SDS011;46967;48.876;2.136;2023-05-27T03:56:12;9.43;;;3.05;;
61085;SDS011;46967;48.876;2.136;2023-05-27T03:58:37;9.45;;;2.97;;
61085;SDS011;46967;48.876;2.136;2023-05-27T04:01:02;7.50;;;2.85;;
61085;SDS011;46967;48.876;2.136;2023-05-27T04:03:28;15.40;;;2.90;;
61085;SDS011;46967;48.876;2.136;2023-05-27T04:05:54;10.80;;;2.95;;
61085;SDS011;46967;48.876;2.136;2023-05-27T04:08:21;8.55;;;2.90;;
61085;SDS011;46967;48.876;2.136;2023-05-27T04:10:47;9.40;;;3.05;;
61085;SDS011;46967;48.876;2.136;2023-05-27T04:13:13;10.60;;;2.72;;
61085;SDS011;46967;48.876;2.136;2023-05-27T04:15:38;10.15;;;2.72;;
61085;SDS011;46967;48.876;2.136;2023-05-27T04:18:04;11.18;;;2.83;;
61085;SDS011;46967;48.876;2.136;2023-05-27T04:20:39;12.45;;;3.08;;
61085;SDS011;46967;48.876;2.136;2023-05-27T04:23:07;5.88;;;2.45;;
61085;SDS011;46967;48.876;2.136;2023-05-27T04:25:32;11.07;;;3.00;;
61085;SDS011;46967;48.876;2.136;2023-05-27T04:27:59;8.40;;;2.58;;
61085;SDS011;46967;48.876;2.136;2023-05-27T04:30:25;9.63;;;2.60;;
61085;SDS011;46967;48.876;2.136;2023-05-27T04:32:50;10.48;;;3.38;;
61085;SDS011;46967;48.876;2.136;2023-05-27T04:35:17;6.88;;;2.95;;
61085;SDS011;46967;48.876;2.136;2023-05-27T04:37:43;8.07;;;2.55;;
61085;SDS011;46967;48.876;2.136;2023-05-27T04:40:09;8.73;;;2.78;;
61085;SDS011;46967;48.876;2.136;2023-05-27T04:42:35;10.52;;;3.55;;
61085;SDS011;46967;48.876;2.136;2023-05-27T04:45:04;9.10;;;2.63;;
61085;SDS011;46967;48.876;2.136;2023-05-27T04:49:56;11.30;;;2.83;;
61085;SDS011;46967;48.876;2.136;2023-05-27T04:52:22;17.77;;;3.53;;
61085;SDS011;46967;48.876;2.136;2023-05-27T04:54:48;9.95;;;3.08;;
61085;SDS011;46967;48.876;2.136;2023-05-27T04:57:14;14.25;;;3.63;;
61085;SDS011;46967;48.876;2.136;2023-05-27T04:59:44;11.93;;;3.28;;
61085;SDS011;46967;48.876;2.136;2023-05-27T05:02:28;9.38;;;3.03;;
61085;SDS011;46967;48.876;2.136;2023-05-27T05:05:03;10.75;;;3.08;;
61085;SDS011;46967;48.876;2.136;2023-05-27T05:07:30;6.32;;;2.70;;
61085;SDS011;46967;48.876;2.136;2023-05-27T05:09:56;10.68;;;2.85;;
61085;SDS011;46967;48.876;2.136;2023-05-27T05:12:22;9.80;;;2.67;;
61085;SDS011;46967;48.876;2.136;2023-05-27T05:14:48;12.77;;;3.30;;
61085;SDS011;46967;48.876;2.136;2023-05-27T05:17:13;9.98;;;3.00;;
61085;SDS011;46967;48.876;2.136;2023-05-27T05:19:39;10.43;;;3.47;;
61085;SDS011;46967;48.876;2.136;2023-05-27T05:22:04;11.45;;;2.88;;
61085;SDS011;46967;48.876;2.136;2023-05-27T05:24:30;11.85;;;2.75;;
61085;SDS011;46967;48.876;2.136;2023-05-27T05:26:55;11.30;;;3.42;;
61085;SDS011;46967;48.876;2.136;2023-05-27T05:29:20;11.80;;;3.25;;
61085;SDS011;46967;48.876;2.136;2023-05-27T05:31:46;11.77;;;3.10;;
61085;SDS011;46967;48.876;2.136;2023-05-27T05:34:11;10.48;;;3.17;;
61085;SDS011;46967;48.876;2.136;2023-05-27T05:36:36;9.60;;;3.15;;
61085;SDS011;46967;48.876;2.136;2023-05-27T05:39:03;16.33;;;3.80;;
61085;SDS011;46967;48.876;2.136;2023-05-27T05:41:28;11.60;;;3.25;;
61085;SDS011;46967;48.876;2.136;2023-05-27T05:43:54;9.88;;;3.28;;
61085;SDS011;46967;48.876;2.136;2023-05-27T05:46:20;22.00;;;3.90;;
61085;SDS011;46967;48.876;2.136;2023-05-27T05:48:45;11.57;;;3.22;;
61085;SDS011;46967;48.876;2.136;2023-05-27T05:51:10;12.43;;;3.83;;
61085;SDS011;46967;48.876;2.136;2023-05-27T05:53:36;11.20;;;3.28;;
61085;SDS011;46967;48.876;2.136;2023-05-27T05:56:01;12.93;;;3.42;;
61085;SDS011;46967;48.876;2.136;2023-05-27T05:58:27;10.55;;;3.55;;
61085;SDS011;46967;48.876;2.136;2023-05-27T06:00:52;11.38;;;3.22;;
61085;SDS011;46967;48.876;2.136;2023-05-27T06:03:17;14.07;;;3.08;;
61085;SDS011;46967;48.876;2.136;2023-05-27T06:05:43;8.27;;;3.08;;
61085;SDS011;46967;48.876;2.136;2023-05-27T06:08:08;14.13;;;3.30;;
61085;SDS011;46967;48.876;2.136;2023-05-27T06:10:34;11.63;;;3.08;;
61085;SDS011;46967;48.876;2.136;2023-05-27T06:12:59;11.40;;;3.10;;
61085;SDS011;46967;48.876;2.136;2023-05-27T06:15:25;12.45;;;3.35;;
61085;SDS011;46967;48.876;2.136;2023-05-27T06:17:52;9.35;;;3.17;;
61085;SDS011;46967;48.876;2.136;2023-05-27T06:20:18;9.80;;;2.78;;
61085;SDS011;46967;48.876;2.136;2023-05-27T06:22:44;14.23;;;3.45;;
61085;SDS011;46967;48.876;2.136;2023-05-27T06:25:12;12.13;;;2.95;;
61085;SDS011;46967;48.876;2.136;2023-05-27T06:27:37;10.77;;;3.05;;
61085;SDS011;46967;48.876;2.136;2023-05-27T06:30:02;9.82;;;3.13;;
61085;SDS011;46967;48.876;2.136;2023-05-27T06:32:28;12.30;;;3.30;;
61085;SDS011;46967;48.876;2.136;2023-05-27T06:34:54;11.93;;;3.42;;
61085;SDS011;46967;48.876;2.136;2023-05-27T06:37:19;11.85;;;3.72;;
61085;SDS011;46967;48.876;2.136;2023-05-27T06:39:45;11.15;;;2.92;;
61085;SDS011;46967;48.876;2.136;2023-05-27T06:42:10;10.93;;;3.50;;
61085;SDS011;46967;48.876;2.136;2023-05-27T06:44:35;15.80;;;4.18;;
61085;SDS011;46967;48.876;2.136;2023-05-27T06:47:01;15.57;;;3.28;;
61085;SDS011;46967;48.876;2.136;2023-05-27T06:49:27;14.30;;;3.33;;
61085;SDS011;46967;48.876;2.136;2023-05-27T06:51:52;13.90;;;3.22;;
61085;SDS011;46967;48.876;2.136;2023-05-27T06:54:18;15.98;;;3.65;;
61085;SDS011;46967;48.876;2.136;2023-05-27T06:56:43;11.48;;;3.97;;
61085;SDS011;46967;48.876;2.136;2023-05-27T06:59:09;15.18;;;3.50;;
61085;SDS011;46967;48.876;2.136;2023-05-27T07:01:34;11.85;;;3.13;;
61085;SDS011;46967;48.876;2.136;2023-05-27T07:04:00;20.23;;;3.80;;
61085;SDS011;46967;48.876;2.136;2023-05-27T07:06:25;16.25;;;3.85;;
61085;SDS011;46967;48.876;2.136;2023-05-27T07:08:51;11.65;;;3.28;;
61085;SDS011;46967;48.876;2.136;2023-05-27T07:11:16;11.82;;;3.03;;
61085;SDS011;46967;48.876;2.136;2023-05-27T07:13:45;14.65;;;3.13;;
61085;SDS011;46967;48.876;2.136;2023-05-27T07:16:10;13.45;;;3.30;;
61085;SDS011;46967;48.876;2.136;2023-05-27T07:18:35;13.57;;;3.30;;
61085;SDS011;46967;48.876;2.136;2023-05-27T07:21:01;16.50;;;3.10;;
61085;SDS011;46967;48.876;2.136;2023-05-27T07:23:26;14.10;;;3.25;;
61085;SDS011;46967;48.876;2.136;2023-05-27T07:25:51;16.90;;;3.70;;
61085;SDS011;46967;48.876;2.136;2023-05-27T07:28:17;10.32;;;3.13;;
61085;SDS011;46967;48.876;2.136;2023-05-27T07:30:42;8.20;;;3.08;;
61085;SDS011;46967;48.876;2.136;2023-05-27T07:33:08;13.70;;;3.28;;
61085;SDS011;46967;48.876;2.136;2023-05-27T07:35:33;11.50;;;3.13;;
61085;SDS011;46967;48.876;2.136;2023-05-27T07:37:58;11.40;;;3.70;;
61085;SDS011;46967;48.876;2.136;2023-05-27T07:40:24;10.63;;;3.03;;
61085;SDS011;46967;48.876;2.136;2023-05-27T07:42:50;12.90;;;2.97;;
61085;SDS011;46967;48.876;2.136;2023-05-27T07:45:16;10.52;;;3.10;;
61085;SDS011;46967;48.876;2.136;2023-05-27T07:47:42;15.15;;;4.13;;
61085;SDS011;46967;48.876;2.136;2023-05-27T07:50:08;12.15;;;3.90;;
61085;SDS011;46967;48.876;2.136;2023-05-27T07:52:34;13.40;;;3.88;;
61085;SDS011;46967;48.876;2.136;2023-05-27T07:54:59;13.02;;;3.40;;
61085;SDS011;46967;48.876;2.136;2023-05-27T07:57:25;13.05;;;2.80;;
61085;SDS011;46967;48.876;2.136;2023-05-27T07:59:50;12.85;;;3.92;;
61085;SDS011;46967;48.876;2.136;2023-05-27T08:02:16;19.42;;;3.47;;
61085;SDS011;46967;48.876;2.136;2023-05-27T08:04:41;18.48;;;3.50;;
61085;SDS011;46967;48.876;2.136;2023-05-27T08:07:08;10.70;;;3.50;;
61085;SDS011;46967;48.876;2.136;2023-05-27T08:09:34;10.32;;;3.20;;
61085;SDS011;46967;48.876;2.136;2023-05-27T08:12:00;16.77;;;3.10;;
61085;SDS011;46967;48.876;2.136;2023-05-27T08:14:25;15.07;;;3.53;;
61085;SDS011;46967;48.876;2.136;2023-05-27T08:16:52;15.07;;;3.38;;
61085;SDS011;46967;48.876;2.136;2023-05-27T08:19:18;9.98;;;3.17;;
61085;SDS011;46967;48.876;2.136;2023-05-27T08:21:44;14.57;;;3.47;;
61085;SDS011;46967;48.876;2.136;2023-05-27T08:24:09;14.30;;;3.58;;
61085;SDS011;46967;48.876;2.136;2023-05-27T08:26:35;12.10;;;3.60;;
61085;SDS011;46967;48.876;2.136;2023-05-27T08:29:00;13.52;;;3.42;;
61085;SDS011;46967;48.876;2.136;2023-05-27T08:31:26;14.70;;;3.67;;
61085;SDS011;46967;48.876;2.136;2023-05-27T08:33:52;14.85;;;3.55;;
61085;SDS011;46967;48.876;2.136;2023-05-27T08:36:17;13.80;;;3.70;;
61085;SDS011;46967;48.876;2.136;2023-05-27T08:38:44;16.65;;;3.50;;
61085;SDS011;46967;48.876;2.136;2023-05-27T08:41:09;13.45;;;3.42;;
61085;SDS011;46967;48.876;2.136;2023-05-27T08:43:35;14.55;;;3.97;;
61085;SDS011;46967;48.876;2.136;2023-05-27T08:46:01;9.63;;;3.50;;
61085;SDS011;46967;48.876;2.136;2023-05-27T08:48:26;12.88;;;3.55;;
61085;SDS011;46967;48.876;2.136;2023-05-27T08:50:52;15.82;;;3.30;;
61085;SDS011;46967;48.876;2.136;2023-05-27T08:53:17;12.10;;;3.83;;
61085;SDS011;46967;48.876;2.136;2023-05-27T08:55:44;15.93;;;3.90;;
61085;SDS011;46967;48.876;2.136;2023-05-27T08:58:12;14.63;;;3.58;;
61085;SDS011;46967;48.876;2.136;2023-05-27T09:00:38;13.90;;;3.42;;
61085;SDS011;46967;48.876;2.136;2023-05-27T09:03:04;12.65;;;3.33;;
61085;SDS011;46967;48.876;2.136;2023-05-27T09:05:30;10.75;;;3.03;;
61085;SDS011;46967;48.876;2.136;2023-05-27T09:07:55;14.07;;;3.55;;
61085;SDS011;46967;48.876;2.136;2023-05-27T09:10:21;16.45;;;3.28;;
61085;SDS011;46967;48.876;2.136;2023-05-27T09:12:46;14.32;;;3.95;;
61085;SDS011;46967;48.876;2.136;2023-05-27T09:15:12;17.17;;;4.43;;
61085;SDS011;46967;48.876;2.136;2023-05-27T09:17:41;15.05;;;3.95;;
61085;SDS011;46967;48.876;2.136;2023-05-27T09:20:08;15.48;;;3.83;;
61085;SDS011;46967;48.876;2.136;2023-05-27T09:22:36;10.32;;;3.53;;
61085;SDS011;46967;48.876;2.136;2023-05-27T09:25:02;14.48;;;3.72;;
61085;SDS011;46967;48.876;2.136;2023-05-27T09:27:28;13.00;;;3.25;;
61085;SDS011;46967;48.876;2.136;2023-05-27T09:29:56;14.23;;;3.78;;
61085;SDS011;46967;48.876;2.136;2023-05-27T09:32:25;18.58;;;3.65;;
61085;SDS011;46967;48.876;2.136;2023-05-27T09:34:52;11.82;;;3.40;;
61085;SDS011;46967;48.876;2.136;2023-05-27T09:37:18;13.70;;;3.47;;
61085;SDS011;46967;48.876;2.136;2023-05-27T09:39:46;11.77;;;3.55;;
61085;SDS011;46967;48.876;2.136;2023-05-27T09:42:11;13.90;;;3.58;;
61085;SDS011;46967;48.876;2.136;2023-05-27T09:44:38;11.55;;;3.67;;
61085;SDS011;46967;48.876;2.136;2023-05-27T09:47:05;12.75;;;4.03;;
61085;SDS011;46967;48.876;2.136;2023-05-27T09:49:34;13.97;;;3.77;;
61085;SDS011;46967;48.876;2.136;2023-05-27T09:52:02;14.52;;;3.88;;
61085;SDS011;46967;48.876;2.136;2023-05-27T09:54:30;16.42;;;3.75;;
61085;SDS011;46967;48.876;2.136;2023-05-27T09:56:57;13.10;;;3.58;;
61085;SDS011;46967;48.876;2.136;2023-05-27T09:59:24;9.77;;;3.22;;
61085;SDS011;46967;48.876;2.136;2023-05-27T10:01:49;13.45;;;4.07;;
61085;SDS011;46967;48.876;2.136;2023-05-27T10:04:15;17.73;;;4.30;;
61085;SDS011;46967;48.876;2.136;2023-05-27T10:06:41;12.02;;;3.50;;
61085;SDS011;46967;48.876;2.136;2023-05-27T10:09:07;12.27;;;3.90;;
61085;SDS011;46967;48.876;2.136;2023-05-27T10:11:32;13.52;;;3.70;;
61085;SDS011;46967;48.876;2.136;2023-05-27T10:14:02;18.67;;;3.90;;
61085;SDS011;46967;48.876;2.136;2023-05-27T10:16:29;17.60;;;4.47;;
61085;SDS011;46967;48.876;2.136;2023-05-27T10:18:58;13.02;;;3.55;;
61085;SDS011;46967;48.876;2.136;2023-05-27T10:21:26;14.40;;;3.72;;
61085;SDS011;46967;48.876;2.136;2023-05-27T10:23:57;13.73;;;3.95;;
61085;SDS011;46967;48.876;2.136;2023-05-27T10:26:37;12.27;;;3.88;;
61085;SDS011;46967;48.876;2.136;2023-05-27T10:29:06;10.90;;;3.78;;
61085;SDS011;46967;48.876;2.136;2023-05-27T10:31:33;10.90;;;4.53;;
61085;SDS011;46967;48.876;2.136;2023-05-27T10:33:58;13.15;;;4.13;;
61085;SDS011;46967;48.876;2.136;2023-05-27T10:36:27;16.92;;;4.03;;
61085;SDS011;46967;48.876;2.136;2023-05-27T10:41:26;13.93;;;3.65;;
61085;SDS011;46967;48.876;2.136;2023-05-27T10:43:58;9.80;;;3.50;;
61085;SDS011;46967;48.876;2.136;2023-05-27T10:46:24;14.10;;;4.03;;
61085;SDS011;46967;48.876;2.136;2023-05-27T10:48:51;11.18;;;3.35;;
61085;SDS011;46967;48.876;2.136;2023-05-27T10:51:16;14.65;;;4.03;;
61085;SDS011;46967;48.876;2.136;2023-05-27T10:53:45;13.35;;;3.95;;
61085;SDS011;46967;48.876;2.136;2023-05-27T10:56:11;12.00;;;4.05;;
61085;SDS011;46967;48.876;2.136;2023-05-27T10:58:37;10.95;;;3.47;;
61085;SDS011;46967;48.876;2.136;2023-05-27T11:01:07;10.80;;;3.30;;
61085;SDS011;46967;48.876;2.136;2023-05-27T11:03:41;19.30;;;4.03;;
61085;SDS011;46967;48.876;2.136;2023-05-27T11:06:10;13.52;;;3.72;;
61085;SDS011;46967;48.876;2.136;2023-05-27T11:08:36;10.63;;;3.53;;
61085;SDS011;46967;48.876;2.136;2023-05-27T11:11:03;9.90;;;3.78;;
61085;SDS011;46967;48.876;2.136;2023-05-27T11:13:34;13.63;;;4.00;;
61085;SDS011;46967;48.876;2.136;2023-05-27T11:16:02;13.35;;;3.85;;
61085;SDS011;46967;48.876;2.136;2023-05-27T11:18:38;13.35;;;4.53;;
61085;SDS011;46967;48.876;2.136;2023-05-27T11:21:05;13.52;;;5.32;;
61085;SDS011;46967;48.876;2.136;2023-05-27T11:23:41;31.30;;;14.70;;
61085;SDS011;46967;48.876;2.136;2023-05-27T11:26:18;21.98;;;10.02;;
61085;SDS011;46967;48.876;2.136;2023-05-27T11:28:53;15.23;;;5.95;;
61085;SDS011;46967;48.876;2.136;2023-05-27T11:31:29;11.45;;;3.90;;
61085;SDS011;46967;48.876;2.136;2023-05-27T11:33:56;10.43;;;3.55;;
61085;SDS011;46967;48.876;2.136;2023-05-27T11:36:26;15.23;;;5.05;;
61085;SDS011;46967;48.876;2.136;2023-05-27T11:38:53;14.85;;;3.85;;
61085;SDS011;46967;48.876;2.136;2023-05-27T11:41:26;10.30;;;3.72;;
61085;SDS011;46967;48.876;2.136;2023-05-27T11:44:05;10.27;;;3.45;;
61085;SDS011;46967;48.876;2.136;2023-05-27T11:49:00;13.60;;;5.00;;
61085;SDS011;46967;48.876;2.136;2023-05-27T11:51:28;13.50;;;4.13;;
61085;SDS011;46967;48.876;2.136;2023-05-27T11:53:54;11.77;;;4.13;;
61085;SDS011;46967;48.876;2.136;2023-05-27T11:56:20;16.30;;;4.95;;
61085;SDS011;46967;48.876;2.136;2023-05-27T11:58:46;11.55;;;3.95;;
61085;SDS011;46967;48.876;2.136;2023-05-27T12:01:12;13.55;;;4.55;;
61085;SDS011;46967;48.876;2.136;2023-05-27T12:03:37;13.30;;;4.10;;
61085;SDS011;46967;48.876;2.136;2023-05-27T12:06:02;12.63;;;4.03;;
61085;SDS011;46967;48.876;2.136;2023-05-27T12:08:28;11.23;;;3.97;;
61085;SDS011;46967;48.876;2.136;2023-05-27T12:10:54;15.55;;;4.13;;
61085;SDS011;46967;48.876;2.136;2023-05-27T12:13:22;9.10;;;4.13;;
61085;SDS011;46967;48.876;2.136;2023-05-27T12:15:48;11.55;;;3.67;;
61085;SDS011;46967;48.876;2.136;2023-05-27T12:18:14;10.73;;;3.70;;
61085;SDS011;46967;48.876;2.136;2023-05-27T12:20:41;11.50;;;3.60;;
61085;SDS011;46967;48.876;2.136;2023-05-27T12:23:06;14.50;;;3.85;;
61085;SDS011;46967;48.876;2.136;2023-05-27T12:25:32;11.35;;;3.80;;
61085;SDS011;46967;48.876;2.136;2023-05-27T12:27:57;10.77;;;4.00;;
61085;SDS011;46967;48.876;2.136;2023-05-27T12:30:23;10.55;;;3.47;;
61085;SDS011;46967;48.876;2.136;2023-05-27T12:32:48;8.70;;;3.05;;
61085;SDS011;46967;48.876;2.136;2023-05-27T12:35:14;17.95;;;3.78;;
61085;SDS011;46967;48.876;2.136;2023-05-27T12:37:39;12.73;;;3.80;;
61085;SDS011;46967;48.876;2.136;2023-05-27T12:40:05;15.38;;;3.97;;
61085;SDS011;46967;48.876;2.136;2023-05-27T12:42:34;14.90;;;4.20;;
61085;SDS011;46967;48.876;2.136;2023-05-27T12:45:00;12.07;;;3.70;;
61085;SDS011;46967;48.876;2.136;2023-05-27T12:47:28;14.85;;;4.35;;
61085;SDS011;46967;48.876;2.136;2023-05-27T12:49:54;10.48;;;3.42;;
61085;SDS011;46967;48.876;2.136;2023-05-27T12:52:20;13.13;;;3.92;;
61085;SDS011;46967;48.876;2.136;2023-05-27T12:54:45;12.25;;;3.90;;
61085;SDS011;46967;48.876;2.136;2023-05-27T12:57:12;12.90;;;4.10;;
61085;SDS011;46967;48.876;2.136;2023-05-27T12:59:37;11.63;;;3.60;;
61085;SDS011;46967;48.876;2.136;2023-05-27T13:02:02;9.60;;;3.95;;
61085;SDS011;46967;48.876;2.136;2023-05-27T13:04:28;13.25;;;4.10;;
61085;SDS011;46967;48.876;2.136;2023-05-27T13:06:53;11.32;;;3.80;;
61085;SDS011;46967;48.876;2.136;2023-05-27T13:09:19;15.55;;;4.13;;
61085;SDS011;46967;48.876;2.136;2023-05-27T13:11:44;8.50;;;3.92;;
61085;SDS011;46967;48.876;2.136;2023-05-27T13:14:10;9.93;;;3.70;;
61085;SDS011;46967;48.876;2.136;2023-05-27T13:16:35;13.57;;;4.20;;
61085;SDS011;46967;48.876;2.136;2023-05-27T13:19:00;10.98;;;4.00;;
61085;SDS011;46967;48.876;2.136;2023-05-27T13:21:26;11.68;;;4.00;;
61085;SDS011;46967;48.876;2.136;2023-05-27T13:23:53;12.63;;;3.50;;
61085;SDS011;46967;48.876;2.136;2023-05-27T13:26:18;11.80;;;3.80;;
61085;SDS011;46967;48.876;2.136;2023-05-27T13:28:43;12.93;;;4.60;;
61085;SDS011;46967;48.876;2.136;2023-05-27T13:31:09;12.38;;;3.80;;
61085;SDS011;46967;48.876;2.136;2023-05-27T13:33:34;11.55;;;3.70;;
61085;SDS011;46967;48.876;2.136;2023-05-27T13:36:00;11.93;;;3.75;;
61085;SDS011;46967;48.876;2.136;2023-05-27T13:38:25;14.75;;;4.35;;
61085;SDS011;46967;48.876;2.136;2023-05-27T13:40:50;8.32;;;3.63;;
61085;SDS011;46967;48.876;2.136;2023-05-27T13:43:16;13.02;;;4.15;;
61085;SDS011;46967;48.876;2.136;2023-05-27T13:45:41;10.05;;;3.92;;
61085;SDS011;46967;48.876;2.136;2023-05-27T13:48:07;11.75;;;3.58;;
61085;SDS011;46967;48.876;2.136;2023-05-27T13:50:33;9.82;;;3.75;;
61085;SDS011;46967;48.876;2.136;2023-05-27T13:53:00;11.65;;;3.78;;
61085;SDS011;46967;48.876;2.136;2023-05-27T13:55:25;9.75;;;3.97;;
61085;SDS011;46967;48.876;2.136;2023-05-27T13:57:51;11.13;;;3.75;;
61085;SDS011;46967;48.876;2.136;2023-05-27T14:00:16;14.82;;;3.58;;
61085;SDS011;46967;48.876;2.136;2023-05-27T14:02:42;8.68;;;3.45;;
61085;SDS011;46967;48.876;2.136;2023-05-27T14:05:07;10.15;;;4.20;;
61085;SDS011;46967;48.876;2.136;2023-05-27T14:07:38;10.00;;;3.10;;
61085;SDS011;46967;48.876;2.136;2023-05-27T14:10:05;15.68;;;4.03;;
61085;SDS011;46967;48.876;2.136;2023-05-27T14:12:31;14.90;;;4.28;;
61085;SDS011;46967;48.876;2.136;2023-05-27T14:14:56;13.18;;;4.07;;
61085;SDS011;46967;48.876;2.136;2023-05-27T14:17:21;13.85;;;4.10;;
61085;SDS011;46967;48.876;2.136;2023-05-27T14:19:47;11.45;;;3.75;;
61085;SDS011;46967;48.876;2.136;2023-05-27T14:22:12;11.88;;;4.10;;
61085;SDS011;46967;48.876;2.136;2023-05-27T14:24:38;14.88;;;4.07;;
61085;SDS011;46967;48.876;2.136;2023-05-27T14:27:03;9.85;;;3.70;;
61085;SDS011;46967;48.876;2.136;2023-05-27T14:29:28;15.80;;;4.15;;
61085;SDS011;46967;48.876;2.136;2023-05-27T14:31:54;12.02;;;3.50;;
61085;SDS011;46967;48.876;2.136;2023-05-27T14:34:19;8.43;;;3.63;;
61085;SDS011;46967;48.876;2.136;2023-05-27T14:36:45;14.25;;;3.83;;
61085;SDS011;46967;48.876;2.136;2023-05-27T14:39:10;10.23;;;3.58;;
61085;SDS011;46967;48.876;2.136;2023-05-27T14:41:36;13.30;;;3.40;;
61085;SDS011;46967;48.876;2.136;2023-05-27T14:44:01;15.52;;;4.38;;
61085;SDS011;46967;48.876;2.136;2023-05-27T14:46:26;11.95;;;4.38;;